Time;durP1;ratioP1;P1;durP2;ratioP2;P2;SDS_P1;SDS_P2;PMS_P1;PMS_P2;Temp;Humidity;BMP_temperature;BMP_pressure;BME280_temperature;BME280_humidity;BME280_pressure;Samples;Min_cycle;Max_cycle;Signal;HPM_P1;HPM_P2
2022/05/19 00:01:19;;;;;;;11.57;10.35;;;22.70;99.90;;;;;;5064292;28;20028;-69
2022/05/19 00:03:45;;;;;;;12.95;10.60;;;22.60;99.90;;;;;;5062814;28;20063;-69
2022/05/19 00:06:11;;;;;;;12.70;9.93;;;22.60;99.90;;;;;;5066859;28;20051;-69
2022/05/19 00:08:37;;;;;;;12.82;10.85;;;22.60;99.90;;;;;;5070569;28;20028;-69
2022/05/19 00:11:08;;;;;;;12.45;9.77;;;22.60;99.90;;;;;;5062352;28;20043;-69
2022/05/19 00:13:34;;;;;;;14.77;12.18;;;22.60;99.90;;;;;;5067335;28;20093;-69
2022/05/19 00:16:00;;;;;;;16.52;12.70;;;22.60;99.90;;;;;;5064001;28;20017;-69
2022/05/19 00:18:26;;;;;;;17.08;12.50;;;22.60;99.90;;;;;;5067242;28;20106;-69
2022/05/19 00:20:52;;;;;;;21.60;17.25;;;22.60;99.90;;;;;;5066052;28;20028;-69
2022/05/19 00:23:18;;;;;;;18.60;14.38;;;22.50;99.90;;;;;;5068071;28;20370;-69
2022/05/19 00:25:45;;;;;;;18.80;15.70;;;22.50;99.90;;;;;;5061259;28;20013;-69
2022/05/19 00:28:11;;;;;;;25.13;16.90;;;22.50;99.90;;;;;;5065944;28;20035;-69
2022/05/19 00:30:37;;;;;;;21.30;14.68;;;22.40;99.90;;;;;;5067745;28;20024;-69
2022/05/19 00:33:03;;;;;;;16.92;15.15;;;22.40;99.90;;;;;;5066140;28;20019;-69
2022/05/19 00:35:30;;;;;;;14.45;11.32;;;22.30;99.90;;;;;;5064369;28;20017;-69
2022/05/19 00:37:55;;;;;;;17.88;11.77;;;22.30;99.90;;;;;;5057283;28;20440;-69
2022/05/19 00:40:23;;;;;;;15.90;11.60;;;22.30;99.90;;;;;;5067419;28;20020;-69
2022/05/19 00:42:50;;;;;;;13.60;10.85;;;22.30;99.90;;;;;;5065165;28;20448;-69
2022/05/19 00:45:39;;;;;;;12.40;11.10;;;22.20;99.90;;;;;;5069595;28;20024;-69
2022/05/19 00:48:14;;;;;;;14.52;11.80;;;22.20;99.90;;;;;;5068426;28;20035;-69
2022/05/19 00:50:54;;;;;;;17.38;14.00;;;22.10;99.90;;;;;;5060740;28;20451;-69
2022/05/19 00:53:51;;;;;;;15.27;12.50;;;22.10;99.90;;;;;;5062947;28;20064;-69
2022/05/19 00:56:29;;;;;;;19.55;16.98;;;22.00;99.90;;;;;;5077509;28;20048;-68
2022/05/19 00:59:23;;;;;;;23.80;16.67;;;22.00;99.90;;;;;;5063530;28;20025;-69
2022/05/19 01:01:49;;;;;;;18.50;14.38;;;21.90;99.90;;;;;;5067803;28;20029;-69
2022/05/19 01:04:37;;;;;;;21.67;17.55;;;21.90;99.90;;;;;;5064465;28;20074;-69
2022/05/19 01:07:10;;;;;;;23.27;14.65;;;21.90;99.90;;;;;;5067141;28;20557;-69
2022/05/19 01:09:38;;;;;;;23.02;17.30;;;21.90;99.90;;;;;;5063348;28;20071;-69
2022/05/19 01:12:06;;;;;;;24.20;20.10;;;21.80;99.90;;;;;;5066905;28;20420;-69
2022/05/19 01:14:32;;;;;;;24.55;18.80;;;21.80;99.90;;;;;;5065137;28;20477;-69
2022/05/19 01:16:58;;;;;;;24.88;20.60;;;21.80;99.90;;;;;;5067548;28;20104;-69
2022/05/19 01:19:36;;;;;;;28.98;24.85;;;21.80;99.90;;;;;;5066787;28;20039;-69
2022/05/19 01:22:26;;;;;;;30.20;26.35;;;21.90;99.90;;;;;;5061038;28;20165;-69
2022/05/19 01:25:11;;;;;;;27.60;22.60;;;21.80;99.90;;;;;;5067309;28;20388;-69
2022/05/19 01:27:37;;;;;;;27.30;22.88;;;21.80;99.90;;;;;;5060601;28;20024;-69
2022/05/19 01:30:05;;;;;;;28.83;23.52;;;21.80;99.90;;;;;;5062652;28;20078;-69
2022/05/19 01:32:31;;;;;;;34.50;23.90;;;21.80;99.90;;;;;;5065850;28;20020;-69
2022/05/19 01:34:58;;;;;;;25.95;22.92;;;21.70;99.90;;;;;;5061410;28;20036;-69
2022/05/19 01:37:24;;;;;;;29.65;21.75;;;21.70;99.90;;;;;;5068063;28;20380;-69
2022/05/19 01:39:56;;;;;;;26.52;21.85;;;21.50;99.90;;;;;;5066740;28;20598;-69
2022/05/19 01:42:53;;;;;;;26.23;21.05;;;21.60;99.90;;;;;;5068958;28;20029;-69
2022/05/19 01:45:24;;;;;;;26.38;23.25;;;21.50;99.90;;;;;;5069297;28;20069;-69
2022/05/19 01:47:58;;;;;;;26.38;22.88;;;21.50;99.90;;;;;;5070235;28;20060;-69
2022/05/19 01:50:36;;;;;;;25.83;19.70;;;21.50;99.90;;;;;;5074600;28;20035;-69
2022/05/19 01:53:06;;;;;;;26.45;19.60;;;21.50;99.90;;;;;;5073453;28;20484;-69
2022/05/19 01:55:48;;;;;;;20.42;17.98;;;21.50;99.90;;;;;;5072895;28;20033;-69
2022/05/19 01:58:57;;;;;;;26.02;18.85;;;21.30;99.90;;;;;;5077677;28;20036;-69
2022/05/19 02:01:26;;;;;;;28.85;22.60;;;21.40;99.90;;;;;;5070589;28;20036;-69
2022/05/19 02:04:17;;;;;;;27.85;22.40;;;21.30;99.90;;;;;;5075195;28;20056;-69
2022/05/19 02:06:51;;;;;;;28.75;22.75;;;21.30;99.90;;;;;;5070315;28;20016;-69
2022/05/19 02:09:25;;;;;;;29.10;24.80;;;21.30;99.90;;;;;;5075849;28;20029;-69
2022/05/19 02:11:56;;;;;;;30.70;23.95;;;21.30;99.90;;;;;;5074151;28;20534;-69
2022/05/19 02:14:34;;;;;;;27.97;22.70;;;21.30;99.90;;;;;;5078101;28;20476;-69
2022/05/19 02:17:04;;;;;;;30.17;24.85;;;21.20;99.90;;;;;;5074418;28;20035;-69
2022/05/19 02:19:37;;;;;;;27.55;24.08;;;21.30;99.90;;;;;;5075952;28;20283;-69
2022/05/19 02:22:05;;;;;;;31.48;27.98;;;21.10;99.90;;;;;;5074748;28;20021;-69
2022/05/19 02:24:33;;;;;;;28.73;23.70;;;21.10;99.90;;;;;;5069776;28;20033;-69
2022/05/19 02:27:17;;;;;;;32.55;25.92;;;21.10;99.90;;;;;;5076827;28;20059;-69
2022/05/19 02:29:43;;;;;;;30.50;22.25;;;21.10;99.90;;;;;;5067828;28;20481;-69
2022/05/19 02:32:09;;;;;;;24.65;21.92;;;21.00;99.90;;;;;;5077271;28;20063;-69
2022/05/19 02:34:34;;;;;;;26.17;23.42;;;21.00;99.90;;;;;;5075766;28;20020;-69
2022/05/19 02:37:00;;;;;;;29.42;22.80;;;21.00;99.90;;;;;;5068688;28;20131;-69
2022/05/19 02:39:26;;;;;;;26.50;22.70;;;21.00;99.90;;;;;;5072654;28;20036;-69
2022/05/19 02:41:51;;;;;;;32.20;23.55;;;21.00;99.90;;;;;;5076357;28;20451;-69
2022/05/19 02:44:17;;;;;;;28.02;24.95;;;21.00;99.90;;;;;;5071684;28;20089;-69
2022/05/19 02:46:43;;;;;;;29.38;24.80;;;21.00;99.90;;;;;;5075839;28;20389;-68
2022/05/19 02:49:09;;;;;;;31.10;24.35;;;21.00;99.90;;;;;;5080613;28;20060;-69
2022/05/19 02:51:34;;;;;;;28.95;25.85;;;21.00;99.90;;;;;;5075982;28;21200;-69
2022/05/19 02:54:00;;;;;;;29.75;26.42;;;21.00;99.90;;;;;;5076689;28;20525;-69
2022/05/19 02:56:26;;;;;;;32.53;27.42;;;21.00;99.90;;;;;;5076263;28;20026;-69
2022/05/19 02:58:51;;;;;;;28.52;25.00;;;21.00;99.90;;;;;;5074240;28;20032;-69
2022/05/19 03:01:17;;;;;;;30.92;25.08;;;21.00;99.90;;;;;;5076734;28;20358;-69
2022/05/19 03:03:43;;;;;;;29.40;23.83;;;21.00;99.90;;;;;;5073245;28;20103;-69
2022/05/19 03:06:08;;;;;;;27.70;23.30;;;21.00;99.90;;;;;;5074583;28;20043;-69
2022/05/19 03:08:34;;;;;;;28.77;23.92;;;20.80;99.90;;;;;;5075972;28;20029;-69
2022/05/19 03:11:00;;;;;;;28.08;25.17;;;20.80;99.90;;;;;;5075014;28;20036;-69
2022/05/19 03:13:25;;;;;;;33.05;26.55;;;20.70;99.90;;;;;;5075028;28;20028;-69
2022/05/19 03:15:51;;;;;;;30.27;25.48;;;20.80;99.90;;;;;;5075943;28;20067;-69
2022/05/19 03:18:17;;;;;;;31.02;26.75;;;20.80;99.90;;;;;;5075542;28;20028;-68
2022/05/19 03:20:43;;;;;;;29.42;23.15;;;20.90;99.90;;;;;;5073876;28;20449;-69
2022/05/19 03:23:09;;;;;;;28.27;25.35;;;20.90;99.90;;;;;;5071203;28;20031;-69
2022/05/19 03:25:35;;;;;;;25.80;21.10;;;20.90;99.90;;;;;;5073433;28;20469;-68
2022/05/19 03:28:01;;;;;;;25.30;19.95;;;20.60;99.90;;;;;;5073779;28;20024;-69
2022/05/19 03:30:26;;;;;;;24.65;21.67;;;20.60;99.90;;;;;;5073582;28;20036;-69
2022/05/19 03:32:52;;;;;;;27.35;20.13;;;20.50;99.90;;;;;;5073454;28;20474;-69
2022/05/19 03:35:18;;;;;;;20.13;14.73;;;20.30;99.90;;;;;;5076927;28;20020;-69
2022/05/19 03:37:44;;;;;;;17.90;14.02;;;20.40;99.90;;;;;;5075520;28;20032;-68
2022/05/19 03:40:13;;;;;;;23.55;17.25;;;20.60;99.90;;;;;;5074006;28;20101;-68
2022/05/19 03:42:38;;;;;;;18.30;14.68;;;20.60;99.90;;;;;;5069013;28;20025;-69
2022/05/19 03:45:05;;;;;;;17.20;14.45;;;20.70;99.90;;;;;;5073542;28;20036;-68
2022/05/19 03:47:31;;;;;;;17.15;14.65;;;20.80;99.90;;;;;;5074765;28;20547;-69
2022/05/19 03:49:57;;;;;;;20.17;14.93;;;20.80;99.90;;;;;;5074570;28;20108;-69
2022/05/19 03:52:23;;;;;;;17.60;14.38;;;20.90;99.90;;;;;;5072983;28;20020;-69
2022/05/19 03:54:48;;;;;;;17.60;14.20;;;21.00;99.90;;;;;;5073600;28;20089;-69
2022/05/19 03:57:16;;;;;;;18.90;15.18;;;21.10;99.90;;;;;;5075866;28;20040;-69
2022/05/19 03:59:41;;;;;;;16.35;14.63;;;21.10;99.90;;;;;;5074510;28;20121;-69
2022/05/19 04:02:07;;;;;;;14.18;12.18;;;21.10;99.90;;;;;;5072525;28;20071;-69
2022/05/19 04:04:33;;;;;;;16.38;12.18;;;21.10;99.90;;;;;;5071912;28;20028;-69
2022/05/19 04:06:58;;;;;;;15.77;11.55;;;21.20;99.90;;;;;;5074512;28;20016;-69
2022/05/19 04:09:25;;;;;;;13.15;11.35;;;21.20;99.90;;;;;;5076020;28;20027;-69
2022/05/19 04:11:51;;;;;;;14.52;11.93;;;21.30;99.90;;;;;;5072598;28;20036;-69
2022/05/19 04:14:16;;;;;;;14.23;11.10;;;21.30;99.90;;;;;;5070231;28;20388;-67
2022/05/19 04:16:42;;;;;;;15.48;11.40;;;21.30;99.90;;;;;;5074305;28;20058;-69
2022/05/19 04:19:08;;;;;;;15.38;12.07;;;21.40;99.90;;;;;;5075573;28;20457;-69
2022/05/19 04:21:34;;;;;;;14.80;11.60;;;21.40;99.90;;;;;;5073529;28;20066;-69
2022/05/19 04:24:00;;;;;;;16.45;11.70;;;21.30;99.90;;;;;;5071720;28;20540;-69
2022/05/19 04:26:26;;;;;;;16.80;11.63;;;21.40;99.90;;;;;;5074103;28;20511;-68
2022/05/19 04:28:52;;;;;;;14.07;11.98;;;21.40;99.90;;;;;;5069954;28;20025;-69
2022/05/19 04:31:17;;;;;;;13.80;12.13;;;21.40;99.90;;;;;;5068448;28;20031;-69
2022/05/19 04:33:43;;;;;;;15.30;11.30;;;21.50;99.90;;;;;;5074437;28;20028;-69
2022/05/19 04:36:09;;;;;;;14.00;11.05;;;21.40;99.90;;;;;;5074193;28;20539;-69
2022/05/19 04:38:34;;;;;;;12.35;11.15;;;21.30;99.90;;;;;;5074193;28;20426;-69
2022/05/19 04:41:03;;;;;;;11.82;10.57;;;21.20;99.90;;;;;;5073565;28;20032;-69
2022/05/19 04:43:29;;;;;;;17.42;11.07;;;21.20;99.90;;;;;;5074036;28;20056;-69
2022/05/19 04:45:56;;;;;;;13.95;11.52;;;21.30;99.90;;;;;;5069305;28;20036;-69
2022/05/19 04:48:23;;;;;;;13.00;11.65;;;21.30;99.90;;;;;;5075106;28;20024;-69
2022/05/19 04:50:57;;;;;;;13.75;11.30;;;21.40;99.90;;;;;;5071610;28;20047;-69
2022/05/19 04:53:23;;;;;;;12.60;11.30;;;21.30;99.90;;;;;;5075113;28;20066;-69
2022/05/19 04:55:51;;;;;;;15.75;11.45;;;21.30;99.90;;;;;;5074561;28;20086;-68
2022/05/19 04:58:17;;;;;;;12.95;11.73;;;21.40;99.90;;;;;;5074620;28;20439;-69
2022/05/19 05:00:47;;;;;;;11.25;9.10;;;21.40;99.90;;;;;;5069632;28;20375;-69
2022/05/19 05:03:12;;;;;;;15.30;11.43;;;21.40;99.90;;;;;;5075656;28;20052;-69
2022/05/19 05:05:38;;;;;;;13.68;9.95;;;21.40;99.90;;;;;;5072781;28;20535;-69
2022/05/19 05:08:04;;;;;;;12.57;9.35;;;21.30;99.90;;;;;;5074635;28;20503;-69
2022/05/19 05:10:30;;;;;;;14.25;11.13;;;21.30;99.90;;;;;;5073564;28;20040;-68
2022/05/19 05:12:56;;;;;;;17.55;11.05;;;21.40;99.90;;;;;;5074585;28;20036;-68
2022/05/19 05:15:22;;;;;;;10.70;9.75;;;21.30;99.90;;;;;;5074639;28;20040;-69
2022/05/19 05:17:47;;;;;;;10.60;9.07;;;21.40;99.90;;;;;;5073580;28;20044;-69
2022/05/19 05:20:14;;;;;;;11.45;10.10;;;21.30;99.90;;;;;;5075188;28;20125;-69
2022/05/19 05:22:39;;;;;;;13.23;11.65;;;21.40;99.90;;;;;;5069912;28;20492;-69
2022/05/19 05:25:11;;;;;;;13.57;11.23;;;21.50;99.90;;;;;;5067451;28;20111;-69
2022/05/19 05:27:37;;;;;;;10.65;9.35;;;21.50;99.90;;;;;;5071781;28;20021;-68
2022/05/19 05:30:04;;;;;;;10.65;9.65;;;21.40;99.90;;;;;;5073484;28;20456;-69
2022/05/19 05:32:30;;;;;;;14.48;9.90;;;21.50;99.90;;;;;;5072472;28;20021;-69
2022/05/19 05:34:55;;;;;;;11.43;10.02;;;21.50;99.90;;;;;;5073700;28;20500;-69
2022/05/19 05:37:22;;;;;;;16.38;11.45;;;21.60;99.90;;;;;;5074575;28;20032;-69
2022/05/19 05:39:48;;;;;;;16.33;11.95;;;21.50;99.90;;;;;;5072388;28;20106;-69
2022/05/19 05:42:14;;;;;;;14.23;11.50;;;21.30;99.90;;;;;;5074662;28;20036;-69
2022/05/19 05:44:39;;;;;;;19.52;13.55;;;21.40;99.90;;;;;;5063563;28;20107;-69
2022/05/19 05:47:05;;;;;;;15.10;13.68;;;21.50;99.90;;;;;;5074721;28;20090;-69
2022/05/19 05:49:31;;;;;;;21.95;17.10;;;21.40;99.90;;;;;;5073540;28;20072;-69
2022/05/19 05:51:56;;;;;;;19.33;13.50;;;21.20;99.90;;;;;;5071729;28;20032;-69
2022/05/19 05:54:22;;;;;;;16.13;14.35;;;21.20;99.90;;;;;;5075244;28;20054;-69
2022/05/19 05:56:48;;;;;;;19.88;16.83;;;21.30;99.90;;;;;;5073266;28;20059;-70
2022/05/19 05:59:13;;;;;;;26.27;21.30;;;21.30;99.90;;;;;;5073525;28;20032;-69
2022/05/19 06:01:39;;;;;;;26.52;22.13;;;21.20;99.90;;;;;;5068728;28;20115;-70
2022/05/19 06:04:05;;;;;;;31.52;22.08;;;21.20;99.90;;;;;;5067920;28;20044;-71
2022/05/19 06:06:30;;;;;;;34.72;24.83;;;21.30;99.90;;;;;;5073746;28;20032;-70
2022/05/19 06:08:56;;;;;;;30.13;25.33;;;21.10;99.90;;;;;;5069926;28;20115;-70
2022/05/19 06:11:22;;;;;;;37.15;29.13;;;20.80;99.90;;;;;;5071105;28;20031;-70
2022/05/19 06:13:50;;;;;;;37.75;30.60;;;20.70;99.90;;;;;;5072676;28;20024;-70
2022/05/19 06:16:17;;;;;;;39.33;31.98;;;20.40;99.90;;;;;;5074537;28;20025;-70
2022/05/19 06:18:42;;;;;;;39.67;35.17;;;20.30;99.90;;;;;;5065982;28;20092;-70
2022/05/19 06:21:08;;;;;;;36.67;32.17;;;20.30;99.90;;;;;;5071300;28;20029;-70
2022/05/19 06:23:34;;;;;;;36.65;31.67;;;20.30;99.90;;;;;;5073806;28;20031;-70
2022/05/19 06:26:01;;;;;;;34.28;29.98;;;20.40;99.90;;;;;;5064861;28;20043;-70
2022/05/19 06:28:27;;;;;;;35.13;28.70;;;20.50;99.90;;;;;;5072228;28;20067;-70
2022/05/19 06:30:53;;;;;;;39.28;32.72;;;20.60;99.90;;;;;;5073083;28;20133;-70
2022/05/19 06:33:20;;;;;;;39.00;28.85;;;20.70;99.90;;;;;;5065742;28;20500;-70
2022/05/19 06:35:46;;;;;;;37.08;28.98;;;20.50;99.90;;;;;;5073414;28;20072;-70
2022/05/19 06:38:12;;;;;;;29.83;26.73;;;20.40;99.90;;;;;;5074090;28;20481;-70
2022/05/19 06:40:38;;;;;;;23.05;19.30;;;20.30;99.90;;;;;;5073453;28;20858;-70
2022/05/19 06:43:13;;;;;;;30.15;22.27;;;20.40;99.90;;;;;;5070626;28;20040;-70
2022/05/19 06:45:39;;;;;;;31.85;25.88;;;20.60;99.90;;;;;;5062969;28;20539;-70
2022/05/19 06:48:06;;;;;;;33.97;28.13;;;20.40;99.90;;;;;;5077372;28;20033;-70
2022/05/19 06:50:33;;;;;;;41.70;35.83;;;20.30;99.90;;;;;;5076299;28;20036;-70
2022/05/19 06:53:03;;;;;;;41.83;35.83;;;20.40;99.90;;;;;;5076074;28;20035;-70
2022/05/19 06:55:31;;;;;;;40.65;34.33;;;20.50;99.90;;;;;;5076190;28;20048;-70
2022/05/19 06:57:57;;;;;;;40.47;34.80;;;20.50;99.90;;;;;;5070171;28;20036;-70
2022/05/19 07:00:24;;;;;;;37.58;31.92;;;20.30;99.90;;;;;;5073500;28;20032;-70
2022/05/19 07:02:53;;;;;;;39.63;35.20;;;20.30;99.90;;;;;;5069205;28;20071;-70
2022/05/19 07:05:22;;;;;;;36.95;32.63;;;20.50;99.90;;;;;;5072644;28;20052;-70
2022/05/19 07:07:47;;;;;;;36.95;32.90;;;20.60;99.90;;;;;;5075464;28;20478;-70
2022/05/19 07:10:19;;;;;;;40.20;33.85;;;20.60;99.90;;;;;;5076175;28;20106;-70
2022/05/19 07:12:45;;;;;;;29.85;26.38;;;20.70;99.90;;;;;;5073960;28;20041;-70
2022/05/19 07:15:14;;;;;;;32.92;25.42;;;20.70;99.90;;;;;;5074415;28;20381;-70
2022/05/19 07:17:40;;;;;;;30.60;25.02;;;20.80;99.90;;;;;;5065986;28;20028;-72
2022/05/19 07:22:51;;;;;;;25.73;22.98;;;21.00;99.90;;;;;;5062264;28;20401;-71
2022/05/19 07:25:18;;;;;;;33.55;28.00;;;21.10;99.90;;;;;;5063399;28;20028;-72
2022/05/19 07:27:43;;;;;;;33.47;28.58;;;21.30;99.90;;;;;;5061077;28;20167;-72
2022/05/19 07:30:10;;;;;;;32.20;28.58;;;21.40;99.90;;;;;;5061786;28;20540;-70
2022/05/19 07:32:37;;;;;;;32.88;27.73;;;21.50;99.90;;;;;;5064496;28;20027;-71
2022/05/19 07:35:04;;;;;;;34.50;30.67;;;21.40;99.90;;;;;;5059308;28;20017;-70
2022/05/19 07:37:31;;;;;;;39.92;34.13;;;21.40;99.90;;;;;;5068908;28;20016;-70
2022/05/19 07:39:57;;;;;;;38.67;34.33;;;21.50;99.90;;;;;;5054697;28;20488;-70
2022/05/19 07:42:23;;;;;;;41.35;32.80;;;21.50;99.90;;;;;;5063258;28;20055;-70
2022/05/19 07:44:49;;;;;;;30.38;27.20;;;21.60;99.90;;;;;;5063428;28;20035;-70
2022/05/19 07:47:15;;;;;;;31.92;28.48;;;21.70;99.90;;;;;;5073444;28;20029;-70
2022/05/19 07:49:41;;;;;;;36.53;30.13;;;21.80;99.90;;;;;;5065384;28;20059;-71
2022/05/19 07:52:07;;;;;;;32.53;28.55;;;21.90;99.90;;;;;;5061406;28;20028;-70
2022/05/19 07:54:33;;;;;;;32.47;26.92;;;22.10;99.90;;;;;;5065174;28;20032;-71
2022/05/19 07:56:59;;;;;;;26.75;19.98;;;22.30;99.90;;;;;;5068136;28;20043;-71
2022/05/19 07:59:25;;;;;;;25.48;20.08;;;22.40;99.90;;;;;;5074323;28;20397;-71
2022/05/19 08:01:51;;;;;;;18.67;15.00;;;22.60;99.90;;;;;;5075264;28;20082;-71
2022/05/19 08:04:17;;;;;;;18.00;13.27;;;22.80;99.90;;;;;;5073824;28;20036;-71
2022/05/19 08:06:43;;;;;;;16.95;14.95;;;23.00;99.90;;;;;;5063811;28;20033;-71
2022/05/19 08:11:54;;;;;;;16.85;10.90;;;23.40;99.90;;;;;;5072371;28;20048;-71
2022/05/19 08:17:10;;;;;;;16.48;10.90;;;23.80;99.90;;;;;;5074069;28;20062;-71
2022/05/19 08:19:39;;;;;;;13.88;11.43;;;24.00;99.90;;;;;;5071932;28;20021;-71
2022/05/19 08:22:06;;;;;;;12.27;9.45;;;24.20;99.90;;;;;;5072107;28;20548;-71
2022/05/19 08:24:32;;;;;;;12.70;9.10;;;24.30;99.90;;;;;;5074782;28;20085;-71
2022/05/19 08:26:58;;;;;;;15.20;10.07;;;24.50;99.90;;;;;;5074859;28;20033;-72
2022/05/19 08:29:24;;;;;;;15.55;10.13;;;24.70;99.90;;;;;;5075763;28;20036;-71
2022/05/19 08:31:50;;;;;;;13.48;9.90;;;24.80;99.90;;;;;;5067606;28;20108;-72
2022/05/19 08:34:17;;;;;;;10.55;9.38;;;25.00;99.90;;;;;;5074227;28;20431;-71
2022/05/19 08:36:44;;;;;;;12.73;8.73;;;25.30;99.90;;;;;;5075383;28;20029;-71
2022/05/19 08:39:10;;;;;;;12.60;8.45;;;25.40;99.90;;;;;;5070076;28;20116;-72
2022/05/19 08:41:47;;;;;;;10.23;8.77;;;25.60;99.90;;;;;;5067472;28;20112;-71
2022/05/19 08:44:24;;;;;;;10.05;7.90;;;25.80;99.90;;;;;;5065402;28;20068;-72
2022/05/19 08:46:53;;;;;;;13.70;6.95;;;26.00;99.90;;;;;;5072731;28;20036;-73
2022/05/19 08:49:27;;;;;;;8.73;6.70;;;26.10;99.90;;;;;;5075263;28;20081;-71
2022/05/19 08:52:04;;;;;;;7.03;6.32;;;26.10;99.90;;;;;;5070711;28;20040;-71
2022/05/19 08:54:33;;;;;;;10.95;6.03;;;26.30;99.90;;;;;;5074088;28;20040;-71
2022/05/19 08:57:05;;;;;;;8.75;6.28;;;26.40;99.90;;;;;;5074986;28;20033;-71
2022/05/19 08:59:56;;;;;;;9.52;6.13;;;26.50;99.90;;;;;;5073414;28;20485;-71
2022/05/19 09:02:37;;;;;;;9.63;5.72;;;26.60;99.90;;;;;;5075185;28;20028;-71
2022/05/19 09:05:09;;;;;;;6.45;5.60;;;26.70;99.90;;;;;;5073543;28;20032;-71
2022/05/19 09:07:56;;;;;;;9.80;5.50;;;26.90;99.90;;;;;;5070921;28;20390;-71
2022/05/19 09:10:37;;;;;;;7.63;6.35;;;27.20;99.90;;;;;;5074480;28;20372;-71
2022/05/19 09:13:16;;;;;;;8.30;5.75;;;27.50;99.90;;;;;;5073200;28;20103;-71
2022/05/19 09:15:46;;;;;;;9.25;5.63;;;27.50;99.90;;;;;;5088848;28;20170;-71
2022/05/19 09:18:15;;;;;;;5.57;4.97;;;27.40;99.90;;;;;;5074712;28;20396;-71
2022/05/19 09:20:47;;;;;;;8.43;5.10;;;27.40;99.90;;;;;;5074052;28;20058;-71
2022/05/19 09:23:12;;;;;;;6.10;5.13;;;27.40;99.90;;;;;;5072355;28;20107;-70
2022/05/19 09:25:45;;;;;;;6.63;5.22;;;27.30;99.90;;;;;;5073154;28;20138;-71
2022/05/19 09:28:12;;;;;;;5.93;4.95;;;27.40;99.90;;;;;;5066904;28;20044;-71
2022/05/19 09:30:49;;;;;;;8.07;4.65;;;27.50;99.90;;;;;;5073895;28;20397;-71
2022/05/19 09:33:21;;;;;;;7.82;5.18;;;27.50;99.90;;;;;;5073059;28;20029;-70
2022/05/19 09:35:54;;;;;;;9.13;4.68;;;27.60;99.90;;;;;;5073518;28;20033;-71
2022/05/19 09:38:30;;;;;;;8.02;4.75;;;27.60;99.90;;;;;;5074772;28;20032;-71
2022/05/19 09:41:06;;;;;;;8.70;4.10;;;27.70;99.60;;;;;;5069838;28;20043;-71
2022/05/19 09:43:37;;;;;;;7.65;4.25;;;27.60;98.20;;;;;;5067677;28;20021;-71
2022/05/19 09:46:11;;;;;;;4.65;4.22;;;27.70;99.40;;;;;;5073472;28;20043;-70
2022/05/19 09:48:43;;;;;;;8.15;5.30;;;27.80;99.80;;;;;;5073263;28;20108;-71
2022/05/19 09:51:11;;;;;;;9.13;4.43;;;27.90;98.80;;;;;;5067152;28;20024;-71
2022/05/19 09:54:03;;;;;;;7.97;4.65;;;27.90;99.20;;;;;;5072491;28;20033;-71
2022/05/19 09:56:39;;;;;;;5.63;4.25;;;28.00;99.00;;;;;;5069268;28;20044;-71
2022/05/19 09:59:35;;;;;;;5.55;4.72;;;28.10;99.80;;;;;;5071096;28;20067;-71
2022/05/19 10:02:15;;;;;;;6.80;4.40;;;28.10;97.30;;;;;;5060606;28;20805;-71
2022/05/19 10:04:49;;;;;;;7.28;4.95;;;28.20;97.60;;;;;;5070058;28;20059;-71
2022/05/19 10:07:23;;;;;;;5.82;4.70;;;28.20;99.50;;;;;;5073054;28;20040;-71
2022/05/19 10:09:51;;;;;;;6.43;3.88;;;28.30;99.90;;;;;;5073480;28;20056;-70
2022/05/19 10:12:44;;;;;;;8.40;4.70;;;28.40;99.90;;;;;;5075094;28;20037;-71
2022/05/19 10:15:14;;;;;;;5.95;4.65;;;28.40;99.90;;;;;;5066063;28;20063;-71
2022/05/19 10:18:15;;;;;;;8.50;4.65;;;28.30;99.70;;;;;;5073990;28;20735;-71
2022/05/19 10:20:50;;;;;;;5.03;4.50;;;28.10;98.00;;;;;;5075798;28;20049;-71
2022/05/19 10:23:47;;;;;;;4.80;4.40;;;28.40;99.60;;;;;;5078046;28;20495;-71
2022/05/19 10:26:29;;;;;;;8.60;4.78;;;28.70;99.30;;;;;;5070937;28;20029;-71
2022/05/19 10:32:55;;;;;;;5.43;4.60;;;28.80;98.00;;;;;;5071941;28;20099;-71
2022/05/19 10:35:24;;;;;;;8.82;4.50;;;28.80;97.70;;;;;;5075662;28;20039;-71
2022/05/19 10:38:05;;;;;;;8.38;4.50;;;29.20;97.90;;;;;;5077409;28;20473;-71
2022/05/19 10:40:44;;;;;;;8.52;4.45;;;29.40;97.00;;;;;;5076417;28;20025;-71
2022/05/19 10:43:27;;;;;;;6.18;4.28;;;29.40;95.60;;;;;;5076974;28;20111;-71
2022/05/19 10:45:58;;;;;;;9.07;4.25;;;29.50;96.50;;;;;;5077282;28;20032;-71
2022/05/19 10:48:39;;;;;;;6.33;4.30;;;29.60;96.00;;;;;;5077342;28;20036;-71
2022/05/19 10:51:10;;;;;;;5.70;4.30;;;29.70;95.10;;;;;;5075691;28;20048;-71
2022/05/19 10:53:50;;;;;;;6.38;4.07;;;29.90;96.00;;;;;;5071394;28;20033;-71
2022/05/19 10:56:43;;;;;;;5.07;3.50;;;29.80;95.40;;;;;;5075818;28;20025;-71
2022/05/19 10:59:30;;;;;;;8.13;3.65;;;29.60;96.20;;;;;;5074509;28;20090;-71
2022/05/19 11:01:56;;;;;;;4.45;3.55;;;29.60;97.40;;;;;;5072000;28;20031;-71
2022/05/19 11:04:45;;;;;;;3.53;3.22;;;29.60;95.60;;;;;;5076761;28;20028;-71
2022/05/19 11:07:17;;;;;;;5.13;3.78;;;29.60;95.70;;;;;;5076924;28;20388;-71
2022/05/19 11:10:01;;;;;;;4.00;3.60;;;29.60;94.60;;;;;;5076238;28;20044;-71
2022/05/19 11:12:44;;;;;;;5.47;3.45;;;29.60;94.50;;;;;;5074003;28;20388;-72
2022/05/19 11:15:16;;;;;;;4.13;3.60;;;29.50;95.50;;;;;;5074974;28;20435;-71
2022/05/19 11:17:44;;;;;;;7.07;3.83;;;29.40;95.20;;;;;;5075180;28;20037;-71
2022/05/19 11:20:16;;;;;;;4.75;3.40;;;29.30;95.40;;;;;;5073892;28;20063;-71
2022/05/19 11:22:45;;;;;;;7.65;3.80;;;29.10;95.70;;;;;;5075624;28;20493;-71
2022/05/19 11:28:44;;;;;;;4.63;3.33;;;28.90;95.40;;;;;;5076689;28;20067;-72
2022/05/19 11:31:20;;;;;;;6.85;4.13;;;28.80;95.80;;;;;;5074295;28;20504;-71
2022/05/19 11:33:50;;;;;;;7.55;3.97;;;28.70;95.90;;;;;;5072786;28;20035;-71
2022/05/19 11:36:22;;;;;;;8.90;3.67;;;28.70;96.50;;;;;;5076423;28;20060;-71
2022/05/19 11:39:01;;;;;;;3.78;3.47;;;28.60;95.60;;;;;;5072876;28;20028;-70
2022/05/19 11:41:34;;;;;;;6.18;3.15;;;28.60;95.80;;;;;;5075356;28;20557;-71
2022/05/19 11:44:11;;;;;;;5.72;3.47;;;28.40;96.30;;;;;;5070147;28;20040;-71
2022/05/19 11:46:59;;;;;;;93.10;6.78;;;28.30;96.80;;;;;;5074737;28;20028;-72
2022/05/19 11:55:45;;;;;;;20.70;5.43;;;25.60;99.90;;;;;;5068485;28;20125;-70
2022/05/19 11:58:21;;;;;;;17.80;3.53;;;24.20;99.90;;;;;;5069314;28;20507;-69
2022/05/19 12:00:47;;;;;;;15.10;2.47;;;23.80;99.90;;;;;;5070759;28;20040;-70
2022/05/19 12:03:36;;;;;;;11.52;1.58;;;23.50;99.90;;;;;;5071083;28;20032;-70
2022/05/19 12:06:16;;;;;;;5.65;1.45;;;23.20;99.90;;;;;;5074409;28;20427;-71
2022/05/19 12:09:04;;;;;;;7.85;1.75;;;22.80;99.90;;;;;;5086440;28;20076;-70
2022/05/19 12:11:48;;;;;;;8.35;2.03;;;22.80;99.90;;;;;;5071027;28;20103;-70
2022/05/19 12:14:27;;;;;;;8.02;1.92;;;22.70;99.90;;;;;;5073224;28;20039;-70
2022/05/19 12:16:52;;;;;;;4.82;2.17;;;22.70;99.90;;;;;;5074819;28;20063;-70
2022/05/19 12:19:40;;;;;;;5.35;2.00;;;22.70;99.90;;;;;;5072089;28;20071;-70
2022/05/19 12:22:29;;;;;;;8.23;2.08;;;22.60;99.90;;;;;;5073533;28;20048;-71
2022/05/19 12:25:07;;;;;;;8.32;2.40;;;22.80;99.90;;;;;;5071517;28;20158;-69
2022/05/19 12:27:59;;;;;;;7.80;2.22;;;22.90;99.90;;;;;;5073954;28;20030;-69
2022/05/19 12:33:22;;;;;;;4.32;2.40;;;23.40;99.90;;;;;;5074099;28;20077;-68
2022/05/19 12:35:54;;;;;;;4.38;2.67;;;23.60;99.90;;;;;;5070384;28;20123;-68
2022/05/19 12:38:35;;;;;;;4.18;3.30;;;23.50;99.90;;;;;;5075258;28;20119;-68
2022/05/19 12:41:36;;;;;;;5.57;3.80;;;23.50;99.90;;;;;;5073380;28;20082;-68
2022/05/19 12:44:35;;;;;;;6.50;3.90;;;23.50;99.90;;;;;;5068791;28;20040;-68
2022/05/19 12:47:10;;;;;;;8.48;4.20;;;23.40;99.90;;;;;;5071020;28;20466;-68
2022/05/19 12:49:36;;;;;;;6.38;4.15;;;23.60;99.90;;;;;;5069345;28;20036;-68
2022/05/19 12:52:13;;;;;;;6.32;4.07;;;23.60;99.90;;;;;;5074006;28;20025;-68
2022/05/19 12:55:09;;;;;;;4.97;4.45;;;23.60;99.90;;;;;;5069712;28;20043;-68
2022/05/19 12:57:35;;;;;;;6.30;4.28;;;23.70;99.90;;;;;;5073285;28;20040;-68
2022/05/19 13:00:09;;;;;;;8.27;4.85;;;23.60;99.90;;;;;;5073561;28;20044;-68
2022/05/19 13:02:34;;;;;;;8.57;5.60;;;23.60;99.90;;;;;;5073571;28;20024;-68
2022/05/19 13:05:05;;;;;;;7.45;5.22;;;23.60;99.90;;;;;;5068545;28;20036;-68
2022/05/19 13:07:43;;;;;;;8.95;4.85;;;23.50;99.90;;;;;;5073542;28;20028;-68
2022/05/19 13:10:38;;;;;;;9.23;5.78;;;23.40;99.90;;;;;;5071607;28;20032;-68
2022/05/19 13:13:19;;;;;;;5.53;4.93;;;23.40;99.90;;;;;;5070659;28;20057;-68
2022/05/19 13:15:52;;;;;;;8.80;6.18;;;23.30;99.90;;;;;;5073223;28;20040;-69
2022/05/19 13:18:22;;;;;;;8.80;6.38;;;23.60;99.90;;;;;;5074267;28;20475;-68